This is the latest recevied weather packets stored in our database for station/object IZ5MJO-13. If no packets are shown the sender has not sent any weather packets the latest 10 day(s).
| Time | Temp. | Humidity | Pressure | Rain* | Wind** | Luminosity | Snow |
|---|---|---|---|---|---|---|---|
| 1787823296 | 30° C | 48% | 1007.8 hPa | - | - | - | - |
| 1787822396 | 29.44° C | 49% | 1007.9 hPa | - | - | - | - |
| 1787821496 | 29.44° C | 49% | 1007.5 hPa | - | - | - | - |
| 1787820595 | 29.44° C | 49% | 1007.4 hPa | - | - | - | - |
| 1787819695 | 28.89° C | 50% | 1007.4 hPa | - | - | - | - |
| 1787818795 | 28.33° C | 52% | 1007.5 hPa | - | - | - | - |
| 1787817894 | 27.22° C | 54% | 1007.6 hPa | - | - | - | - |
| 1787816994 | 26.67° C | 55% | 1007.9 hPa | - | - | - | - |
| 1787816093 | 26.67° C | 56% | 1007.7 hPa | - | - | - | - |
| 1787815193 | 25.56° C | 55% | 1007.8 hPa | - | - | - | - |
| 1787814293 | 25° C | 55% | 1008.1 hPa | - | - | - | - |
| 1787813396 | 23.89° C | 58% | 1007.7 hPa | - | - | - | - |
| 1787813393 | 25° C | 54% | 1008 hPa | - | - | - | - |
| 1787813053 | 23.33° C | 59% | 1007.7 hPa | - | - | - | - |
| 1787812493 | 24.44° C | 58% | 1007.6 hPa | - | - | - | - |
| 1787811592 | 23.89° C | 58% | 1007.7 hPa | - | - | - | - |
| 1787810692 | 23.33° C | 59% | 1007.7 hPa | - | - | - | - |
| 1787809795 | 23.33° C | 58% | 1007.6 hPa | - | - | - | - |
| 1787809229 | 23.33° C | 53% | 1007.5 hPa | - | - | - | - |
| 1787808895 | 23.33° C | 57% | 1007.6 hPa | - | - | - | - |
| 1787808775 | 23.89° C | 56% | 1007 hPa | - | - | - | - |
| 1787808242 | 23.89° C | 55% | 1007.2 hPa | - | - | - | - |
| 1787807994 | 23.89° C | 56% | 1007.3 hPa | - | - | - | - |
| 1787807094 | 23.89° C | 56% | 1007.4 hPa | - | - | - | - |
| 1787806194 | 23.89° C | 56% | 1007.3 hPa | - | - | - | - |
* Rain since midnight (hover to see other rain measurements)
** Current wind speed in m/s (hover to see current wind gust speed)